PAMR/MRI METAR and TAF weather

Enter ICAO airport designator
Station Type Date Time Source
PAMR METAR 2019/10/23 07:53 UTC NOAA

PAMR 230753Z VRB06KT 10SM FEW070 OVC110 04/M01 A2966 RMK AO2 SLP046 T00391006


Station Type Date Time Source
PAMR Decoded METAR 2019/10/23 07:53 UTC NOAA

ANCHORAGE MERRILL FIELD, AK, United States (PAMR) 61-13N 149-51W
Oct 23, 2019 - 03:53 AM EDT / 2019.10.23 0753 UTC
Wind: Variable at 7 MPH (6 KT):0
Visibility: 10 mile(s):0
Sky conditions: overcast
Temperature: 39.0 F (3.9 C)
Dew Point: 30.9 F (-0.6 C)
Relative Humidity: 72%
Pressure (altimeter): 29.66 in. Hg (1004 hPa)
ob: PAMR 230753Z VRB06KT 10SM FEW070 OVC110 04/M01 A2966 RMK AO2 SLP046 T00391006
cycle: 8

Station Type Date Time Source
PAMR TAF UTC NOAA

Error!

Example: see airport list